Westbrookville, New York
Current Conditions -  °F | °C
As of 4:54 AM on Friday 21 Nov 2014 (Local Time) from KMGJ Reporting Station
Clear Clear  
Wind Chill: 16°   Ceiling: Unl
Heat Index: 24°   Visibility: 10mi
Dew Point:   Wind: 7mph
Humidity: 51%   Direction: 260°W
Pressure: 30.08"   Gusts: NA
Location:  41.5°N, 74.56°W
Report Text: KMGJ 210954Z AUTO 26006KT 10SM CLR M04/M13 A3008 RMK AO2 SLP191 T10441133 PWINO FZRANO TSNO
Loading
Personal Weather Stations






























Interactive Weather Map New forecast layout! Learn more

10-Day Weather Forecast

Advertisements
Track Severe Weather on mobile